Airfield :
LOGIN :

Register | Disclaimer

   EN    FR    IT 

 










Legend :    VFR   Marginal VFR   IFR   Intensive IFR   Very Intensive IFR
Visi :
Ceiling :
>= 8 km
>= 3000ft
5 to 8 km
1000 to 3000 ft
1500m to 5 km
500 to 1000 ft
800 to 1500m
200 to 500 ft
< 800m
< 200 ft
Symbols :   Thunderstorms  Fog  Heavy snow  Heavy precipitations  Wind > 20 kt
SIGMETs :     Misc.  Thunderstorms  Icing  Turbulence  Mountain Waves  Volcanic Ashes






- Airport Elevation : 65 ft
- IATA code : PIK


EGPK - Glasgow Prestwick

CURRENT METAR :
  • 190650Z 20006KT 9999 FEW020 BKN029 13/10 Q1022

EXPIRED METARs :
  • 190620Z 18005KT 9999 FEW020 BKN029 12/10 Q1021
  • 190550Z 16005KT 9999 FEW012 OVC029 12/10 Q1021
  • 190520Z 14005KT 9999 BKN027 12/10 Q1021
  • 190450Z 10003KT 060V140 9999 BKN015 BKN026 11/10 Q1021
  • 190420Z VRB02KT 9999 BKN015 BKN026 11/10 Q1021
  • 190350Z 06003KT 9999 BKN026 BKN045 11/09 Q1021
  • 190320Z AUTO VRB02KT 9999 BKN026/// 11/09 Q1021
  • 190250Z VRB02KT 9999 FEW015 BKN021 11/09 Q1021
  • 190220Z AUTO 02001KT 9999 SCT015/// OVC021/// 10/09 Q1021

TAF TAF EGPK
Valid from the 19 at 06:00 until the 20 at 06:00 UTC


190455Z 1906/2006 VRB04KT 9999 SCT020
BECMG 1906/1909 24010KT
PROB30
TEMPO 1906/1909 BKN014
BECMG 2000/2003 BKN012
TEMPO 2003/2006 7000 -RA BKN007



MET'MAP, your aeronautical weather chart ! - Copyright ORBIFLY December 2007 - Disclaimer

ORBIFLY MET'MAP TEAM :

Programming & Development : Alexandra Zaïnal
Original concept : Baudouin d'Aumeries
Technical & hardware support : Manuel Goepfert
Assistance : Marc-Olivier Méhu




SOURCES & CREDITS :

   NOAA